sensor_id;sensor_type;location;lat;lon;timestamp;temperature;humidity
12504;DHT22;6316;48.118;-1.690;2024-02-15T00:01:57;14.60;99.90
12504;DHT22;6316;48.118;-1.690;2024-02-15T00:04:22;14.70;99.90
12504;DHT22;6316;48.118;-1.690;2024-02-15T00:06:48;14.60;99.90
12504;DHT22;6316;48.118;-1.690;2024-02-15T00:09:14;14.70;99.90
12504;DHT22;6316;48.118;-1.690;2024-02-15T00:11:39;14.60;99.90
12504;DHT22;6316;48.118;-1.690;2024-02-15T00:14:05;14.60;99.90
12504;DHT22;6316;48.118;-1.690;2024-02-15T00:16:31;14.60;99.90
12504;DHT22;6316;48.118;-1.690;2024-02-15T00:18:56;14.60;99.90
12504;DHT22;6316;48.118;-1.690;2024-02-15T00:21:22;14.60;99.90
12504;DHT22;6316;48.118;-1.690;2024-02-15T00:23:48;14.60;99.90
12504;DHT22;6316;48.118;-1.690;2024-02-15T00:26:14;14.60;99.90
12504;DHT22;6316;48.118;-1.690;2024-02-15T00:28:43;14.60;99.90
12504;DHT22;6316;48.118;-1.690;2024-02-15T00:31:09;14.50;99.90
12504;DHT22;6316;48.118;-1.690;2024-02-15T00:33:35;14.50;99.90
12504;DHT22;6316;48.118;-1.690;2024-02-15T00:36:02;14.60;99.90
12504;DHT22;6316;48.118;-1.690;2024-02-15T00:38:29;14.50;99.90
12504;DHT22;6316;48.118;-1.690;2024-02-15T00:40:55;14.60;99.90
12504;DHT22;6316;48.118;-1.690;2024-02-15T00:43:20;14.50;99.90
12504;DHT22;6316;48.118;-1.690;2024-02-15T00:45:46;14.50;99.90
12504;DHT22;6316;48.118;-1.690;2024-02-15T00:48:12;14.40;99.90
12504;DHT22;6316;48.118;-1.690;2024-02-15T00:50:37;14.40;99.90
12504;DHT22;6316;48.118;-1.690;2024-02-15T00:53:03;14.50;99.90
12504;DHT22;6316;48.118;-1.690;2024-02-15T00:55:29;14.50;99.90
12504;DHT22;6316;48.118;-1.690;2024-02-15T00:57:55;14.50;99.90
12504;DHT22;6316;48.118;-1.690;2024-02-15T01:00:20;14.50;99.90
12504;DHT22;6316;48.118;-1.690;2024-02-15T01:02:46;14.50;99.90
12504;DHT22;6316;48.118;-1.690;2024-02-15T01:05:12;14.40;99.90
12504;DHT22;6316;48.118;-1.690;2024-02-15T01:07:41;14.40;99.90
12504;DHT22;6316;48.118;-1.690;2024-02-15T01:10:07;14.40;99.90
12504;DHT22;6316;48.118;-1.690;2024-02-15T01:12:33;14.40;99.90
12504;DHT22;6316;48.118;-1.690;2024-02-15T01:14:59;14.40;99.90
12504;DHT22;6316;48.118;-1.690;2024-02-15T01:17:24;14.40;99.90
12504;DHT22;6316;48.118;-1.690;2024-02-15T01:19:50;14.40;99.90
12504;DHT22;6316;48.118;-1.690;2024-02-15T01:22:16;14.40;99.90
12504;DHT22;6316;48.118;-1.690;2024-02-15T01:24:42;14.40;99.90
12504;DHT22;6316;48.118;-1.690;2024-02-15T01:27:08;14.40;99.90
12504;DHT22;6316;48.118;-1.690;2024-02-15T01:29:35;14.40;99.90
12504;DHT22;6316;48.118;-1.690;2024-02-15T01:32:00;14.40;99.90
12504;DHT22;6316;48.118;-1.690;2024-02-15T01:34:28;14.40;99.90
12504;DHT22;6316;48.118;-1.690;2024-02-15T01:36:53;14.40;99.90
12504;DHT22;6316;48.118;-1.690;2024-02-15T01:39:19;14.40;99.90
12504;DHT22;6316;48.118;-1.690;2024-02-15T01:41:48;14.40;99.90
12504;DHT22;6316;48.118;-1.690;2024-02-15T01:44:17;14.40;99.90
12504;DHT22;6316;48.118;-1.690;2024-02-15T01:46:44;14.30;99.90
12504;DHT22;6316;48.118;-1.690;2024-02-15T01:49:11;14.40;99.90
12504;DHT22;6316;48.118;-1.690;2024-02-15T01:51:37;14.30;99.90
12504;DHT22;6316;48.118;-1.690;2024-02-15T01:54:03;14.30;99.90
12504;DHT22;6316;48.118;-1.690;2024-02-15T01:56:30;14.30;99.90
12504;DHT22;6316;48.118;-1.690;2024-02-15T01:58:57;14.30;99.90
12504;DHT22;6316;48.118;-1.690;2024-02-15T02:01:23;14.30;99.90
12504;DHT22;6316;48.118;-1.690;2024-02-15T02:03:49;14.30;99.90
12504;DHT22;6316;48.118;-1.690;2024-02-15T02:06:16;14.20;99.90
12504;DHT22;6316;48.118;-1.690;2024-02-15T02:08:41;14.20;99.90
12504;DHT22;6316;48.118;-1.690;2024-02-15T02:11:07;14.20;99.90
12504;DHT22;6316;48.118;-1.690;2024-02-15T02:13:33;14.20;99.90
12504;DHT22;6316;48.118;-1.690;2024-02-15T02:15:58;14.20;99.90
12504;DHT22;6316;48.118;-1.690;2024-02-15T02:18:25;14.10;99.90
12504;DHT22;6316;48.118;-1.690;2024-02-15T02:20:51;14.10;99.90
12504;DHT22;6316;48.118;-1.690;2024-02-15T02:23:17;14.10;99.90
12504;DHT22;6316;48.118;-1.690;2024-02-15T02:25:44;14.10;99.90
12504;DHT22;6316;48.118;-1.690;2024-02-15T02:28:12;14.10;99.90
12504;DHT22;6316;48.118;-1.690;2024-02-15T02:30:38;14.10;99.90
12504;DHT22;6316;48.118;-1.690;2024-02-15T02:33:13;14.00;99.90
12504;DHT22;6316;48.118;-1.690;2024-02-15T02:35:47;14.00;99.90
12504;DHT22;6316;48.118;-1.690;2024-02-15T02:38:13;14.00;99.90
12504;DHT22;6316;48.118;-1.690;2024-02-15T02:40:40;14.00;99.90
12504;DHT22;6316;48.118;-1.690;2024-02-15T02:43:06;14.00;99.90
12504;DHT22;6316;48.118;-1.690;2024-02-15T02:45:32;14.00;99.90
12504;DHT22;6316;48.118;-1.690;2024-02-15T02:47:58;14.00;99.90
12504;DHT22;6316;48.118;-1.690;2024-02-15T02:50:24;14.00;99.90
12504;DHT22;6316;48.118;-1.690;2024-02-15T02:52:50;13.90;99.90
12504;DHT22;6316;48.118;-1.690;2024-02-15T02:55:16;13.90;99.90
12504;DHT22;6316;48.118;-1.690;2024-02-15T02:57:42;13.90;99.90
12504;DHT22;6316;48.118;-1.690;2024-02-15T03:00:10;13.90;99.90
12504;DHT22;6316;48.118;-1.690;2024-02-15T03:02:42;13.90;99.90
12504;DHT22;6316;48.118;-1.690;2024-02-15T03:05:09;13.90;99.90
12504;DHT22;6316;48.118;-1.690;2024-02-15T03:07:36;13.90;99.90
12504;DHT22;6316;48.118;-1.690;2024-02-15T03:10:03;13.90;99.90
12504;DHT22;6316;48.118;-1.690;2024-02-15T03:12:35;13.90;99.90
12504;DHT22;6316;48.118;-1.690;2024-02-15T03:15:02;13.80;99.90
12504;DHT22;6316;48.118;-1.690;2024-02-15T03:17:28;13.80;99.90
12504;DHT22;6316;48.118;-1.690;2024-02-15T03:19:59;13.80;99.90
12504;DHT22;6316;48.118;-1.690;2024-02-15T03:22:27;13.80;99.90
12504;DHT22;6316;48.118;-1.690;2024-02-15T03:24:54;13.80;99.90
12504;DHT22;6316;48.118;-1.690;2024-02-15T03:27:20;13.80;99.90
12504;DHT22;6316;48.118;-1.690;2024-02-15T03:29:48;13.80;99.90
12504;DHT22;6316;48.118;-1.690;2024-02-15T03:32:14;13.80;99.90
12504;DHT22;6316;48.118;-1.690;2024-02-15T03:34:39;13.80;99.90
12504;DHT22;6316;48.118;-1.690;2024-02-15T03:37:05;13.70;99.90
12504;DHT22;6316;48.118;-1.690;2024-02-15T03:39:31;13.70;99.90
12504;DHT22;6316;48.118;-1.690;2024-02-15T03:41:58;13.70;99.90
12504;DHT22;6316;48.118;-1.690;2024-02-15T03:44:24;13.70;99.90
12504;DHT22;6316;48.118;-1.690;2024-02-15T03:46:51;13.70;99.90
12504;DHT22;6316;48.118;-1.690;2024-02-15T03:49:18;13.70;99.90
12504;DHT22;6316;48.118;-1.690;2024-02-15T03:51:43;13.60;99.90
12504;DHT22;6316;48.118;-1.690;2024-02-15T03:54:11;13.60;99.90
12504;DHT22;6316;48.118;-1.690;2024-02-15T03:56:36;13.60;99.90
12504;DHT22;6316;48.118;-1.690;2024-02-15T03:59:02;13.60;99.90
12504;DHT22;6316;48.118;-1.690;2024-02-15T04:01:30;13.60;99.90
12504;DHT22;6316;48.118;-1.690;2024-02-15T04:03:59;13.60;99.90
12504;DHT22;6316;48.118;-1.690;2024-02-15T04:06:25;13.60;99.90
12504;DHT22;6316;48.118;-1.690;2024-02-15T04:08:53;13.50;99.90
12504;DHT22;6316;48.118;-1.690;2024-02-15T04:11:19;13.40;99.90
12504;DHT22;6316;48.118;-1.690;2024-02-15T04:13:45;13.50;99.90
12504;DHT22;6316;48.118;-1.690;2024-02-15T04:16:11;13.50;99.90
12504;DHT22;6316;48.118;-1.690;2024-02-15T04:18:36;13.50;99.90
12504;DHT22;6316;48.118;-1.690;2024-02-15T04:21:03;13.50;99.90
12504;DHT22;6316;48.118;-1.690;2024-02-15T04:23:31;13.50;99.90
12504;DHT22;6316;48.118;-1.690;2024-02-15T04:25:57;13.50;99.90
12504;DHT22;6316;48.118;-1.690;2024-02-15T04:28:25;13.50;99.90
12504;DHT22;6316;48.118;-1.690;2024-02-15T04:30:51;13.40;99.90
12504;DHT22;6316;48.118;-1.690;2024-02-15T04:33:16;13.40;99.90
12504;DHT22;6316;48.118;-1.690;2024-02-15T04:35:42;13.40;99.90
12504;DHT22;6316;48.118;-1.690;2024-02-15T04:38:09;13.40;99.90
12504;DHT22;6316;48.118;-1.690;2024-02-15T04:40:34;13.30;99.90
12504;DHT22;6316;48.118;-1.690;2024-02-15T04:43:02;13.40;99.90
12504;DHT22;6316;48.118;-1.690;2024-02-15T04:45:29;13.40;99.90
12504;DHT22;6316;48.118;-1.690;2024-02-15T04:47:56;13.40;99.90
12504;DHT22;6316;48.118;-1.690;2024-02-15T04:50:22;13.30;99.90
12504;DHT22;6316;48.118;-1.690;2024-02-15T04:52:48;13.30;99.90
12504;DHT22;6316;48.118;-1.690;2024-02-15T04:55:15;13.30;99.90
12504;DHT22;6316;48.118;-1.690;2024-02-15T04:57:41;13.30;99.90
12504;DHT22;6316;48.118;-1.690;2024-02-15T05:00:07;13.20;99.90
12504;DHT22;6316;48.118;-1.690;2024-02-15T05:02:38;13.30;99.90
12504;DHT22;6316;48.118;-1.690;2024-02-15T05:05:11;13.30;99.90
12504;DHT22;6316;48.118;-1.690;2024-02-15T05:07:38;13.30;99.90
12504;DHT22;6316;48.118;-1.690;2024-02-15T05:10:05;13.20;99.90
12504;DHT22;6316;48.118;-1.690;2024-02-15T05:12:32;13.30;99.90
12504;DHT22;6316;48.118;-1.690;2024-02-15T05:14:59;13.20;99.90
12504;DHT22;6316;48.118;-1.690;2024-02-15T05:17:24;13.20;99.90
12504;DHT22;6316;48.118;-1.690;2024-02-15T05:19:50;13.30;99.90
12504;DHT22;6316;48.118;-1.690;2024-02-15T05:22:16;13.30;99.90
12504;DHT22;6316;48.118;-1.690;2024-02-15T05:24:41;13.20;99.90
12504;DHT22;6316;48.118;-1.690;2024-02-15T05:27:07;13.20;99.90
12504;DHT22;6316;48.118;-1.690;2024-02-15T05:29:32;13.20;99.90
12504;DHT22;6316;48.118;-1.690;2024-02-15T05:32:01;13.10;99.90
12504;DHT22;6316;48.118;-1.690;2024-02-15T05:34:27;13.10;99.90
12504;DHT22;6316;48.118;-1.690;2024-02-15T05:36:55;13.10;99.90
12504;DHT22;6316;48.118;-1.690;2024-02-15T05:39:20;13.10;99.90
12504;DHT22;6316;48.118;-1.690;2024-02-15T05:41:47;13.10;99.90
12504;DHT22;6316;48.118;-1.690;2024-02-15T05:44:13;13.10;99.90
12504;DHT22;6316;48.118;-1.690;2024-02-15T05:46:44;13.00;99.90
12504;DHT22;6316;48.118;-1.690;2024-02-15T05:49:10;13.10;99.90
12504;DHT22;6316;48.118;-1.690;2024-02-15T05:51:41;13.20;99.90
12504;DHT22;6316;48.118;-1.690;2024-02-15T05:54:07;13.00;99.90
12504;DHT22;6316;48.118;-1.690;2024-02-15T05:56:32;13.10;99.90
12504;DHT22;6316;48.118;-1.690;2024-02-15T05:58:58;13.00;99.90
12504;DHT22;6316;48.118;-1.690;2024-02-15T06:01:23;13.00;99.90
12504;DHT22;6316;48.118;-1.690;2024-02-15T06:03:49;13.00;99.90
12504;DHT22;6316;48.118;-1.690;2024-02-15T06:06:16;13.00;99.90
12504;DHT22;6316;48.118;-1.690;2024-02-15T06:08:41;13.00;99.90
12504;DHT22;6316;48.118;-1.690;2024-02-15T06:11:42;13.00;99.90
12504;DHT22;6316;48.118;-1.690;2024-02-15T06:14:10;13.00;99.90
12504;DHT22;6316;48.118;-1.690;2024-02-15T06:16:43;12.90;99.90
12504;DHT22;6316;48.118;-1.690;2024-02-15T06:19:08;12.90;99.90
12504;DHT22;6316;48.118;-1.690;2024-02-15T06:21:34;12.90;99.90
12504;DHT22;6316;48.118;-1.690;2024-02-15T06:24:00;12.90;99.90
12504;DHT22;6316;48.118;-1.690;2024-02-15T06:26:25;12.80;99.90
12504;DHT22;6316;48.118;-1.690;2024-02-15T06:28:51;13.00;99.90
12504;DHT22;6316;48.118;-1.690;2024-02-15T06:31:35;12.90;99.90
12504;DHT22;6316;48.118;-1.690;2024-02-15T06:34:19;12.90;99.90
12504;DHT22;6316;48.118;-1.690;2024-02-15T06:37:03;12.90;99.90
12504;DHT22;6316;48.118;-1.690;2024-02-15T06:39:47;12.90;99.90
12504;DHT22;6316;48.118;-1.690;2024-02-15T06:42:14;12.90;99.90
12504;DHT22;6316;48.118;-1.690;2024-02-15T06:44:42;12.90;99.90
12504;DHT22;6316;48.118;-1.690;2024-02-15T06:47:08;12.90;99.90
12504;DHT22;6316;48.118;-1.690;2024-02-15T06:49:39;12.90;99.90
12504;DHT22;6316;48.118;-1.690;2024-02-15T06:52:06;12.90;99.90
12504;DHT22;6316;48.118;-1.690;2024-02-15T06:54:33;12.90;99.90
12504;DHT22;6316;48.118;-1.690;2024-02-15T06:56:59;12.90;99.90
12504;DHT22;6316;48.118;-1.690;2024-02-15T06:59:26;12.90;99.90
12504;DHT22;6316;48.118;-1.690;2024-02-15T07:01:51;12.90;99.90
12504;DHT22;6316;48.118;-1.690;2024-02-15T07:04:18;12.90;99.90
12504;DHT22;6316;48.118;-1.690;2024-02-15T07:06:44;12.90;99.90
12504;DHT22;6316;48.118;-1.690;2024-02-15T07:09:13;12.90;99.90
12504;DHT22;6316;48.118;-1.690;2024-02-15T07:11:41;12.90;99.90
12504;DHT22;6316;48.118;-1.690;2024-02-15T07:14:07;12.80;99.90
12504;DHT22;6316;48.118;-1.690;2024-02-15T07:16:34;12.90;99.90
12504;DHT22;6316;48.118;-1.690;2024-02-15T07:19:00;12.80;99.90
12504;DHT22;6316;48.118;-1.690;2024-02-15T07:21:26;12.80;99.90
12504;DHT22;6316;48.118;-1.690;2024-02-15T07:23:55;12.80;99.90
12504;DHT22;6316;48.118;-1.690;2024-02-15T07:26:21;12.80;99.90
12504;DHT22;6316;48.118;-1.690;2024-02-15T07:28:51;12.80;99.90
12504;DHT22;6316;48.118;-1.690;2024-02-15T07:31:18;12.80;99.90
12504;DHT22;6316;48.118;-1.690;2024-02-15T07:33:43;12.90;99.90
12504;DHT22;6316;48.118;-1.690;2024-02-15T07:36:09;12.90;99.90
12504;DHT22;6316;48.118;-1.690;2024-02-15T07:38:35;12.90;99.90
12504;DHT22;6316;48.118;-1.690;2024-02-15T07:41:00;12.90;99.90
12504;DHT22;6316;48.118;-1.690;2024-02-15T07:43:26;12.90;99.90
12504;DHT22;6316;48.118;-1.690;2024-02-15T07:45:53;12.80;99.90
12504;DHT22;6316;48.118;-1.690;2024-02-15T07:48:18;12.90;99.90
12504;DHT22;6316;48.118;-1.690;2024-02-15T07:50:44;12.90;99.90
12504;DHT22;6316;48.118;-1.690;2024-02-15T07:53:10;12.90;99.90
12504;DHT22;6316;48.118;-1.690;2024-02-15T07:55:37;13.00;99.90
12504;DHT22;6316;48.118;-1.690;2024-02-15T07:58:04;13.00;99.90
12504;DHT22;6316;48.118;-1.690;2024-02-15T08:00:30;13.00;99.90
12504;DHT22;6316;48.118;-1.690;2024-02-15T08:02:56;13.00;99.90
12504;DHT22;6316;48.118;-1.690;2024-02-15T08:05:22;13.00;99.90
12504;DHT22;6316;48.118;-1.690;2024-02-15T08:07:48;13.10;99.90
12504;DHT22;6316;48.118;-1.690;2024-02-15T08:10:15;13.10;99.90
12504;DHT22;6316;48.118;-1.690;2024-02-15T08:12:42;13.20;99.90
12504;DHT22;6316;48.118;-1.690;2024-02-15T08:15:09;13.20;99.90
12504;DHT22;6316;48.118;-1.690;2024-02-15T08:17:42;13.20;99.90
12504;DHT22;6316;48.118;-1.690;2024-02-15T08:20:10;13.20;99.90
12504;DHT22;6316;48.118;-1.690;2024-02-15T08:22:37;13.30;99.90
12504;DHT22;6316;48.118;-1.690;2024-02-15T08:25:11;13.30;99.90
12504;DHT22;6316;48.118;-1.690;2024-02-15T08:27:41;13.30;99.90
12504;DHT22;6316;48.118;-1.690;2024-02-15T08:30:10;13.30;99.90
12504;DHT22;6316;48.118;-1.690;2024-02-15T08:32:37;13.40;99.90
12504;DHT22;6316;48.118;-1.690;2024-02-15T08:35:03;13.40;99.90
12504;DHT22;6316;48.118;-1.690;2024-02-15T08:37:30;13.40;99.90
12504;DHT22;6316;48.118;-1.690;2024-02-15T08:39:57;13.30;99.90
12504;DHT22;6316;48.118;-1.690;2024-02-15T08:42:23;13.50;99.90
12504;DHT22;6316;48.118;-1.690;2024-02-15T08:44:50;13.50;99.90
12504;DHT22;6316;48.118;-1.690;2024-02-15T08:47:15;13.60;99.90
12504;DHT22;6316;48.118;-1.690;2024-02-15T08:49:41;13.60;99.90
12504;DHT22;6316;48.118;-1.690;2024-02-15T08:52:06;13.70;99.90
12504;DHT22;6316;48.118;-1.690;2024-02-15T08:54:33;13.60;99.90
12504;DHT22;6316;48.118;-1.690;2024-02-15T08:56:59;13.80;99.90
12504;DHT22;6316;48.118;-1.690;2024-02-15T08:59:26;13.80;99.90
12504;DHT22;6316;48.118;-1.690;2024-02-15T09:01:55;13.90;99.90
12504;DHT22;6316;48.118;-1.690;2024-02-15T09:04:22;13.90;99.90
12504;DHT22;6316;48.118;-1.690;2024-02-15T09:06:50;13.90;99.90
12504;DHT22;6316;48.118;-1.690;2024-02-15T09:09:16;14.00;99.90
12504;DHT22;6316;48.118;-1.690;2024-02-15T09:11:42;14.00;99.90
12504;DHT22;6316;48.118;-1.690;2024-02-15T09:14:08;14.10;99.90
12504;DHT22;6316;48.118;-1.690;2024-02-15T09:16:38;14.10;99.90
12504;DHT22;6316;48.118;-1.690;2024-02-15T09:19:05;14.20;99.90
12504;DHT22;6316;48.118;-1.690;2024-02-15T09:21:31;14.20;99.90
12504;DHT22;6316;48.118;-1.690;2024-02-15T09:23:59;14.30;99.90
12504;DHT22;6316;48.118;-1.690;2024-02-15T09:26:25;14.30;99.90
12504;DHT22;6316;48.118;-1.690;2024-02-15T09:28:50;14.30;99.90
12504;DHT22;6316;48.118;-1.690;2024-02-15T09:31:16;14.30;99.90
12504;DHT22;6316;48.118;-1.690;2024-02-15T09:33:42;14.40;99.90
12504;DHT22;6316;48.118;-1.690;2024-02-15T09:36:08;14.50;99.90
12504;DHT22;6316;48.118;-1.690;2024-02-15T09:38:33;14.50;99.90
12504;DHT22;6316;48.118;-1.690;2024-02-15T09:40:59;14.60;99.90
12504;DHT22;6316;48.118;-1.690;2024-02-15T09:43:25;14.60;99.90
12504;DHT22;6316;48.118;-1.690;2024-02-15T09:45:52;14.70;99.90
12504;DHT22;6316;48.118;-1.690;2024-02-15T09:48:24;14.80;99.90
12504;DHT22;6316;48.118;-1.690;2024-02-15T09:50:52;14.90;99.90
12504;DHT22;6316;48.118;-1.690;2024-02-15T09:53:21;15.00;99.90
12504;DHT22;6316;48.118;-1.690;2024-02-15T09:55:46;14.90;99.90
12504;DHT22;6316;48.118;-1.690;2024-02-15T09:58:12;15.10;99.90
12504;DHT22;6316;48.118;-1.690;2024-02-15T10:00:38;15.10;99.90
12504;DHT22;6316;48.118;-1.690;2024-02-15T10:03:06;15.20;99.90
12504;DHT22;6316;48.118;-1.690;2024-02-15T10:05:35;15.20;99.90
12504;DHT22;6316;48.118;-1.690;2024-02-15T10:08:00;15.20;99.90
12504;DHT22;6316;48.118;-1.690;2024-02-15T10:10:29;15.30;99.90
12504;DHT22;6316;48.118;-1.690;2024-02-15T10:12:55;15.40;99.90
12504;DHT22;6316;48.118;-1.690;2024-02-15T10:15:31;15.40;99.90
12504;DHT22;6316;48.118;-1.690;2024-02-15T10:17:58;15.50;99.90
12504;DHT22;6316;48.118;-1.690;2024-02-15T10:20:24;15.60;99.90
12504;DHT22;6316;48.118;-1.690;2024-02-15T10:23:10;15.70;99.90
12504;DHT22;6316;48.118;-1.690;2024-02-15T10:25:40;15.70;99.90
12504;DHT22;6316;48.118;-1.690;2024-02-15T10:28:08;15.70;99.90
12504;DHT22;6316;48.118;-1.690;2024-02-15T10:30:36;15.80;99.90
12504;DHT22;6316;48.118;-1.690;2024-02-15T10:33:06;15.80;99.90
12504;DHT22;6316;48.118;-1.690;2024-02-15T10:35:33;15.90;99.90
12504;DHT22;6316;48.118;-1.690;2024-02-15T10:38:09;15.90;99.90
12504;DHT22;6316;48.118;-1.690;2024-02-15T10:40:40;15.90;99.90
12504;DHT22;6316;48.118;-1.690;2024-02-15T10:43:09;15.90;99.90
12504;DHT22;6316;48.118;-1.690;2024-02-15T10:45:36;16.00;99.90
12504;DHT22;6316;48.118;-1.690;2024-02-15T10:48:05;15.90;99.90
12504;DHT22;6316;48.118;-1.690;2024-02-15T10:50:31;16.00;99.90
12504;DHT22;6316;48.118;-1.690;2024-02-15T10:52:58;16.10;99.90
12504;DHT22;6316;48.118;-1.690;2024-02-15T10:55:38;16.20;99.90
12504;DHT22;6316;48.118;-1.690;2024-02-15T10:58:06;16.30;99.90
12504;DHT22;6316;48.118;-1.690;2024-02-15T11:00:33;16.30;99.90
12504;DHT22;6316;48.118;-1.690;2024-02-15T11:03:03;16.40;99.90
12504;DHT22;6316;48.118;-1.690;2024-02-15T11:05:33;16.40;99.90
12504;DHT22;6316;48.118;-1.690;2024-02-15T11:08:07;16.40;99.90
12504;DHT22;6316;48.118;-1.690;2024-02-15T11:10:37;16.40;99.90
12504;DHT22;6316;48.118;-1.690;2024-02-15T11:13:03;16.40;99.90
12504;DHT22;6316;48.118;-1.690;2024-02-15T11:18:02;16.40;99.90
12504;DHT22;6316;48.118;-1.690;2024-02-15T11:23:01;16.60;99.90
12504;DHT22;6316;48.118;-1.690;2024-02-15T11:25:33;16.70;99.90
12504;DHT22;6316;48.118;-1.690;2024-02-15T11:30:46;17.00;99.90
12504;DHT22;6316;48.118;-1.690;2024-02-15T11:36:08;17.20;99.90
12504;DHT22;6316;48.118;-1.690;2024-02-15T11:38:36;17.20;99.90
12504;DHT22;6316;48.118;-1.690;2024-02-15T11:41:03;17.20;99.90
12504;DHT22;6316;48.118;-1.690;2024-02-15T11:43:45;17.20;99.90
12504;DHT22;6316;48.118;-1.690;2024-02-15T11:46:16;17.10;99.90
12504;DHT22;6316;48.118;-1.690;2024-02-15T11:48:44;17.10;99.90
12504;DHT22;6316;48.118;-1.690;2024-02-15T11:51:34;17.20;99.90
12504;DHT22;6316;48.118;-1.690;2024-02-15T11:54:09;17.20;99.90
12504;DHT22;6316;48.118;-1.690;2024-02-15T11:59:10;17.30;99.90
12504;DHT22;6316;48.118;-1.690;2024-02-15T12:01:44;17.30;99.90
12504;DHT22;6316;48.118;-1.690;2024-02-15T12:04:30;17.40;99.90
12504;DHT22;6316;48.118;-1.690;2024-02-15T12:07:15;17.50;99.90
12504;DHT22;6316;48.118;-1.690;2024-02-15T12:09:59;17.60;99.90
12504;DHT22;6316;48.118;-1.690;2024-02-15T12:12:54;17.70;99.90
12504;DHT22;6316;48.118;-1.690;2024-02-15T12:15:38;17.70;99.90
12504;DHT22;6316;48.118;-1.690;2024-02-15T12:18:22;17.70;99.90
12504;DHT22;6316;48.118;-1.690;2024-02-15T12:21:07;17.60;99.90
12504;DHT22;6316;48.118;-1.690;2024-02-15T12:23:37;17.60;99.90
12504;DHT22;6316;48.118;-1.690;2024-02-15T12:26:03;17.60;99.90
12504;DHT22;6316;48.118;-1.690;2024-02-15T12:28:30;17.60;99.90
12504;DHT22;6316;48.118;-1.690;2024-02-15T12:30:56;17.70;99.90
12504;DHT22;6316;48.118;-1.690;2024-02-15T12:33:22;17.70;99.90
12504;DHT22;6316;48.118;-1.690;2024-02-15T12:35:48;17.70;99.90
12504;DHT22;6316;48.118;-1.690;2024-02-15T12:38:15;17.70;99.90
12504;DHT22;6316;48.118;-1.690;2024-02-15T12:40:42;17.80;99.90
12504;DHT22;6316;48.118;-1.690;2024-02-15T12:43:08;17.80;99.90
12504;DHT22;6316;48.118;-1.690;2024-02-15T12:45:40;17.80;99.90
12504;DHT22;6316;48.118;-1.690;2024-02-15T12:48:10;17.80;99.90
12504;DHT22;6316;48.118;-1.690;2024-02-15T12:50:41;17.90;99.90
12504;DHT22;6316;48.118;-1.690;2024-02-15T12:53:07;17.90;99.90
12504;DHT22;6316;48.118;-1.690;2024-02-15T12:55:35;17.90;99.90
12504;DHT22;6316;48.118;-1.690;2024-02-15T12:58:06;17.90;99.90
12504;DHT22;6316;48.118;-1.690;2024-02-15T13:00:35;17.90;99.90
12504;DHT22;6316;48.118;-1.690;2024-02-15T13:03:04;17.80;99.90
12504;DHT22;6316;48.118;-1.690;2024-02-15T13:05:31;17.80;99.90
12504;DHT22;6316;48.118;-1.690;2024-02-15T13:07:57;17.80;99.90
12504;DHT22;6316;48.118;-1.690;2024-02-15T13:10:23;17.80;99.90
12504;DHT22;6316;48.118;-1.690;2024-02-15T13:12:52;17.90;99.90
12504;DHT22;6316;48.118;-1.690;2024-02-15T13:15:18;17.90;99.90
12504;DHT22;6316;48.118;-1.690;2024-02-15T13:17:50;17.90;99.90
12504;DHT22;6316;48.118;-1.690;2024-02-15T13:20:19;18.00;99.90
12504;DHT22;6316;48.118;-1.690;2024-02-15T13:22:52;18.00;99.90
12504;DHT22;6316;48.118;-1.690;2024-02-15T13:25:19;18.00;99.90
12504;DHT22;6316;48.118;-1.690;2024-02-15T13:27:46;18.00;99.90
12504;DHT22;6316;48.118;-1.690;2024-02-15T13:30:13;18.00;99.90
12504;DHT22;6316;48.118;-1.690;2024-02-15T13:32:39;18.00;99.90
12504;DHT22;6316;48.118;-1.690;2024-02-15T13:35:09;18.10;99.90
12504;DHT22;6316;48.118;-1.690;2024-02-15T13:37:48;18.10;99.90
12504;DHT22;6316;48.118;-1.690;2024-02-15T13:40:14;18.00;99.90
12504;DHT22;6316;48.118;-1.690;2024-02-15T13:42:44;18.00;99.90
12504;DHT22;6316;48.118;-1.690;2024-02-15T13:45:21;18.00;99.90
12504;DHT22;6316;48.118;-1.690;2024-02-15T13:47:51;18.00;99.90
12504;DHT22;6316;48.118;-1.690;2024-02-15T13:50:18;18.00;99.90
12504;DHT22;6316;48.118;-1.690;2024-02-15T13:52:45;18.00;99.90
12504;DHT22;6316;48.118;-1.690;2024-02-15T13:55:12;18.10;99.90
12504;DHT22;6316;48.118;-1.690;2024-02-15T13:57:43;18.00;99.90
12504;DHT22;6316;48.118;-1.690;2024-02-15T14:00:10;18.10;99.90
12504;DHT22;6316;48.118;-1.690;2024-02-15T14:02:47;18.20;99.90
12504;DHT22;6316;48.118;-1.690;2024-02-15T14:05:13;18.20;99.90
12504;DHT22;6316;48.118;-1.690;2024-02-15T14:07:39;18.30;99.90
12504;DHT22;6316;48.118;-1.690;2024-02-15T14:10:06;18.30;99.90
12504;DHT22;6316;48.118;-1.690;2024-02-15T14:12:32;18.30;99.90
12504;DHT22;6316;48.118;-1.690;2024-02-15T14:14:58;18.40;99.90
12504;DHT22;6316;48.118;-1.690;2024-02-15T14:17:23;18.40;99.90
12504;DHT22;6316;48.118;-1.690;2024-02-15T14:19:49;18.40;99.90
12504;DHT22;6316;48.118;-1.690;2024-02-15T14:22:15;18.40;99.90
12504;DHT22;6316;48.118;-1.690;2024-02-15T14:24:44;18.40;99.90
12504;DHT22;6316;48.118;-1.690;2024-02-15T14:27:10;18.40;99.90
12504;DHT22;6316;48.118;-1.690;2024-02-15T14:29:37;18.40;99.90
12504;DHT22;6316;48.118;-1.690;2024-02-15T14:32:11;18.40;99.90
12504;DHT22;6316;48.118;-1.690;2024-02-15T14:34:55;18.40;99.90
12504;DHT22;6316;48.118;-1.690;2024-02-15T14:37:22;18.40;99.90
12504;DHT22;6316;48.118;-1.690;2024-02-15T14:39:47;18.50;99.90
12504;DHT22;6316;48.118;-1.690;2024-02-15T14:42:13;18.50;99.90
12504;DHT22;6316;48.118;-1.690;2024-02-15T14:44:39;18.50;99.90
12504;DHT22;6316;48.118;-1.690;2024-02-15T14:47:05;18.60;99.90
12504;DHT22;6316;48.118;-1.690;2024-02-15T14:49:31;18.60;99.90
12504;DHT22;6316;48.118;-1.690;2024-02-15T14:51:56;18.60;99.90
12504;DHT22;6316;48.118;-1.690;2024-02-15T14:54:22;18.60;99.90
12504;DHT22;6316;48.118;-1.690;2024-02-15T14:56:48;18.70;99.90
12504;DHT22;6316;48.118;-1.690;2024-02-15T14:59:13;18.70;99.90
12504;DHT22;6316;48.118;-1.690;2024-02-15T15:01:40;18.70;99.90
12504;DHT22;6316;48.118;-1.690;2024-02-15T15:04:06;18.70;99.90
12504;DHT22;6316;48.118;-1.690;2024-02-15T15:06:33;18.70;99.90
12504;DHT22;6316;48.118;-1.690;2024-02-15T15:09:17;18.70;99.90
12504;DHT22;6316;48.118;-1.690;2024-02-15T15:12:01;18.80;99.90
12504;DHT22;6316;48.118;-1.690;2024-02-15T15:14:46;18.80;99.90
12504;DHT22;6316;48.118;-1.690;2024-02-15T15:17:12;18.80;99.90
12504;DHT22;6316;48.118;-1.690;2024-02-15T15:19:38;18.70;99.90
12504;DHT22;6316;48.118;-1.690;2024-02-15T15:22:04;18.70;99.90
12504;DHT22;6316;48.118;-1.690;2024-02-15T15:24:31;18.60;99.90
12504;DHT22;6316;48.118;-1.690;2024-02-15T15:26:58;18.60;99.90
12504;DHT22;6316;48.118;-1.690;2024-02-15T15:29:25;18.50;99.90
12504;DHT22;6316;48.118;-1.690;2024-02-15T15:31:50;18.50;99.90
12504;DHT22;6316;48.118;-1.690;2024-02-15T15:34:17;18.40;99.90
12504;DHT22;6316;48.118;-1.690;2024-02-15T15:36:45;18.40;99.90
12504;DHT22;6316;48.118;-1.690;2024-02-15T15:39:12;18.40;99.90
12504;DHT22;6316;48.118;-1.690;2024-02-15T15:41:38;18.30;99.90
12504;DHT22;6316;48.118;-1.690;2024-02-15T15:44:03;18.30;99.90
12504;DHT22;6316;48.118;-1.690;2024-02-15T15:46:30;18.30;99.90
12504;DHT22;6316;48.118;-1.690;2024-02-15T15:48:56;18.20;99.90